createdAt,value
2019-02-22T00:01:37.658Z,102432.42
2019-02-22T00:04:06.141Z,102444.32
2019-02-22T00:06:34.701Z,102449.73
2019-02-22T00:09:04.881Z,102452.29
2019-02-22T00:11:33.373Z,102458.33
2019-02-22T00:14:01.851Z,102465.95
2019-02-22T00:16:32.360Z,102475.73
2019-02-22T00:19:00.605Z,102476.03
2019-02-22T00:21:29.155Z,102485.84
2019-02-22T00:23:57.740Z,102486.92
2019-02-22T00:26:26.449Z,102495.45
2019-02-22T00:28:54.982Z,102499.98
2019-02-22T00:31:23.411Z,102499.88
2019-02-22T00:33:51.922Z,102500.99
2019-02-22T00:36:20.400Z,102504.86
2019-02-22T00:38:48.981Z,102508.91
2019-02-22T00:41:17.541Z,102511.24
2019-02-22T00:43:46.025Z,102517.67
2019-02-22T00:46:14.563Z,102518.72
2019-02-22T00:48:43.098Z,102528.27
2019-02-22T00:51:11.648Z,102527.55
2019-02-22T00:53:40.121Z,102526.11
2019-02-22T00:56:08.593Z,102529.95
2019-02-22T00:58:37.095Z,102528.48
2019-02-22T01:01:05.569Z,102533.73
2019-02-22T01:03:34.069Z,102542.12
2019-02-22T01:06:02.545Z,102543.36
2019-02-22T01:08:31.046Z,102549.52
2019-02-22T01:10:59.584Z,102550.87
2019-02-22T01:13:28.096Z,102559.20
2019-02-22T01:15:56.577Z,102566.83
2019-02-22T01:18:25.040Z,102566.27
2019-02-22T01:20:54.643Z,102573.44
2019-02-22T01:23:23.400Z,102575.69
2019-02-22T01:25:51.888Z,102580.27
2019-02-22T01:28:20.347Z,102581.55
2019-02-22T01:30:48.833Z,102585.00
2019-02-22T01:33:17.290Z,102587.14
2019-02-22T01:35:45.782Z,102587.86
2019-02-22T01:38:14.265Z,102593.00
2019-02-22T01:40:44.136Z,102600.02
2019-02-22T01:43:12.796Z,102610.73
2019-02-22T01:45:41.292Z,102605.87
2019-02-22T01:48:09.778Z,102618.45
2019-02-22T01:50:38.269Z,102620.19
2019-02-22T01:53:06.844Z,102615.91
2019-02-22T01:55:35.305Z,102616.70
2019-02-22T01:58:03.774Z,102614.33
2019-02-22T02:00:32.410Z,102618.53
2019-02-22T02:03:03.797Z,102624.73
2019-02-22T02:05:32.308Z,102624.73
2019-02-22T02:08:00.784Z,102621.23
2019-02-22T02:10:29.280Z,102633.33
2019-02-22T02:12:57.747Z,102636.41
2019-02-22T02:15:26.232Z,102637.61
2019-02-22T02:17:54.688Z,102639.75
2019-02-22T02:20:23.379Z,102640.23
2019-02-22T02:22:51.824Z,102641.66
2019-02-22T02:25:20.529Z,102648.68
2019-02-22T02:27:48.999Z,102655.13
2019-02-22T02:30:17.588Z,102648.83
2019-02-22T02:32:46.081Z,102647.25
2019-02-22T02:35:14.620Z,102651.80
2019-02-22T02:37:43.208Z,102645.11
2019-02-22T02:40:11.843Z,102648.94
2019-02-22T02:42:40.339Z,102656.56
2019-02-22T02:45:09.097Z,102657.98
2019-02-22T02:47:37.589Z,102660.30
2019-02-22T02:50:07.538Z,102661.72
2019-02-22T02:52:36.032Z,102667.36
2019-02-22T02:55:04.666Z,102668.64
2019-02-22T02:57:33.184Z,102677.47
2019-02-22T03:00:01.761Z,102672.69
2019-02-22T03:02:31.305Z,102682.72
2019-02-22T03:04:59.769Z,102685.02
2019-02-22T03:07:44.989Z,102691.28
2019-02-22T03:10:13.685Z,102694.33
2019-02-22T03:12:42.236Z,102706.08
2019-02-22T03:15:13.299Z,102708.30
2019-02-22T03:17:41.864Z,102707.05
2019-02-22T03:20:10.504Z,102714.75
2019-02-22T03:22:38.980Z,102711.90
2019-02-22T03:25:09.352Z,102714.83
2019-02-22T03:27:37.921Z,102716.73
2019-02-22T03:30:11.154Z,102719.59
2019-02-22T03:32:39.670Z,102726.36
2019-02-22T03:35:08.384Z,102727.63
2019-02-22T03:37:36.927Z,102731.20
2019-02-22T03:40:07.292Z,102737.66
2019-02-22T03:42:35.747Z,102745.18
2019-02-22T03:45:06.093Z,102739.05
2019-02-22T03:47:35.460Z,102747.98
2019-02-22T03:50:06.315Z,102755.39
2019-02-22T03:52:39.209Z,102765.18
2019-02-22T03:55:09.177Z,102774.64
2019-02-22T03:57:37.720Z,102781.50
2019-02-22T04:00:09.223Z,102786.13
2019-02-22T04:02:37.695Z,102738.88
2019-02-22T04:05:09.577Z,102798.70
2019-02-22T04:07:38.044Z,102801.05
2019-02-22T04:10:08.060Z,102812.09
2019-02-22T04:12:36.593Z,102817.88
2019-02-22T04:15:08.349Z,102819.09
2019-02-22T04:17:37.053Z,102823.09
2019-02-22T04:20:07.777Z,102832.53
2019-02-22T04:22:36.297Z,102834.44
2019-02-22T04:25:06.236Z,102842.63
2019-02-22T04:27:34.691Z,102849.51
2019-02-22T04:30:03.329Z,102849.57
2019-02-22T04:32:31.825Z,102854.78
2019-02-22T04:35:00.336Z,102857.32
2019-02-22T04:37:28.777Z,102864.55
2019-02-22T04:39:57.256Z,102861.53
2019-02-22T04:42:25.739Z,102863.81
2019-02-22T04:44:54.917Z,102878.78
2019-02-22T04:47:23.397Z,102882.03
2019-02-22T04:49:51.857Z,102878.95
2019-02-22T04:52:20.347Z,102886.89
2019-02-22T04:54:48.800Z,102893.86
2019-02-22T04:57:17.277Z,102886.91
2019-02-22T04:59:45.734Z,102891.23
2019-02-22T05:02:14.276Z,102897.93
2019-02-22T05:04:42.731Z,102907.57
2019-02-22T05:07:11.230Z,102909.67
2019-02-22T05:09:39.662Z,102917.34
2019-02-22T05:12:11.171Z,102920.30
2019-02-22T05:14:38.321Z,102924.45
2019-02-22T05:17:06.805Z,102930.36
2019-02-22T05:19:35.281Z,102938.75
2019-02-22T05:22:03.777Z,102944.75
2019-02-22T05:24:32.312Z,102944.95
2019-02-22T05:27:00.880Z,102946.48
2019-02-22T05:29:29.491Z,102959.11
2019-02-22T05:31:57.986Z,102963.27
2019-02-22T05:34:29.441Z,102975.15
2019-02-22T05:36:57.908Z,102979.80
2019-02-22T05:39:26.472Z,102983.56
2019-02-22T05:41:54.936Z,102988.48
2019-02-22T05:44:23.490Z,102984.65
2019-02-22T05:46:59.946Z,102983.36
2019-02-22T05:49:22.627Z,102989.61
2019-02-22T05:51:51.093Z,102990.30
2019-02-22T05:54:19.599Z,102999.60
2019-02-22T05:56:48.063Z,103001.27
2019-02-22T05:59:16.619Z,103014.39
2019-02-22T06:01:45.164Z,103010.93
2019-02-22T06:04:13.647Z,103017.01
2019-02-22T06:06:42.114Z,103025.27
2019-02-22T06:09:10.699Z,103031.56
2019-02-22T06:11:39.148Z,103032.95
2019-02-22T06:14:07.627Z,103034.45
2019-02-22T06:16:37.757Z,103050.05
2019-02-22T06:19:06.227Z,103054.03
2019-02-22T06:21:34.732Z,103062.51
2019-02-22T06:24:03.340Z,103059.81
2019-02-22T06:26:31.940Z,103066.08
2019-02-22T06:29:03.236Z,103073.01
2019-02-22T06:31:31.742Z,103084.40
2019-02-22T06:34:02.169Z,103079.38
2019-02-22T06:36:30.655Z,103086.66
2019-02-22T06:38:59.201Z,103088.61
2019-02-22T06:41:30.678Z,103095.11
2019-02-22T06:43:59.148Z,103098.49
2019-02-22T06:46:27.630Z,103106.87
2019-02-22T06:48:56.099Z,103120.58
2019-02-22T06:51:24.602Z,103125.98
2019-02-22T06:53:53.065Z,103131.59
2019-02-22T06:56:24.186Z,103139.10
2019-02-22T06:58:51.743Z,103141.87
2019-02-22T07:01:20.220Z,103146.70
2019-02-22T07:03:48.705Z,103144.09
2019-02-22T07:06:17.267Z,103157.23
2019-02-22T07:08:45.775Z,103166.43
2019-02-22T07:11:15.881Z,103161.17
2019-02-22T07:13:44.366Z,103167.00
2019-02-22T07:16:12.901Z,103172.13
2019-02-22T07:18:41.541Z,103179.51
2019-02-22T07:21:12.758Z,103193.38
2019-02-22T07:23:41.311Z,103201.70
2019-02-22T07:26:09.882Z,103207.56
2019-02-22T07:28:38.383Z,103217.55
2019-02-22T07:31:06.866Z,103227.03
2019-02-22T07:33:35.346Z,103239.27
2019-02-22T07:36:03.831Z,103241.70
2019-02-22T07:38:32.307Z,103253.64
2019-02-22T07:41:00.861Z,103254.73
2019-02-22T07:43:29.341Z,103265.02
2019-02-22T07:45:57.816Z,103277.32
2019-02-22T07:48:26.280Z,103282.09
2019-02-22T07:50:58.075Z,103281.94
2019-02-22T07:53:26.509Z,103294.48
2019-02-22T07:55:54.988Z,103294.84
2019-02-22T07:58:23.450Z,103299.36
2019-02-22T08:00:51.997Z,103307.44
2019-02-22T08:03:20.537Z,103316.78
2019-02-22T08:05:49.140Z,103318.80
2019-02-22T08:08:17.616Z,103329.61
2019-02-22T08:10:46.079Z,103335.58
2019-02-22T08:13:19.848Z,103334.91
2019-02-22T08:15:44.752Z,103334.83
2019-02-22T08:18:13.217Z,103360.12
2019-02-22T08:20:41.713Z,103359.73
2019-02-22T08:23:10.180Z,103365.34
2019-02-22T08:25:38.745Z,103366.56
2019-02-22T08:28:07.211Z,103374.73
2019-02-22T08:30:35.697Z,103387.64
2019-02-22T08:33:04.233Z,103391.56
2019-02-22T08:35:32.930Z,103400.70
2019-02-22T08:38:02.945Z,103395.09
2019-02-22T08:40:31.424Z,103408.27
2019-02-22T08:42:59.876Z,103408.03
2019-02-22T08:45:28.410Z,103413.48
2019-02-22T08:47:56.940Z,103417.45
2019-02-22T08:50:25.477Z,103430.72
2019-02-22T08:52:54.002Z,103425.74
2019-02-22T08:55:22.635Z,103434.18
2019-02-22T08:57:51.130Z,103439.75
2019-02-22T09:00:19.852Z,103458.88
2019-02-22T09:02:48.308Z,103454.38
2019-02-22T09:05:17.000Z,103449.34
2019-02-22T09:07:45.451Z,103459.88
2019-02-22T09:10:14.297Z,103463.20
2019-02-22T09:12:42.758Z,103464.53
2019-02-22T09:15:11.644Z,103464.59
2019-02-22T09:17:40.114Z,103458.13
2019-02-22T09:20:11.380Z,103458.30
2019-02-22T09:22:39.911Z,103471.05
2019-02-22T09:25:08.750Z,103480.73
2019-02-22T09:27:37.293Z,103487.12
2019-02-22T09:30:09.227Z,103480.33
2019-02-22T09:32:37.713Z,103495.11
2019-02-22T09:35:08.854Z,103495.12
2019-02-22T09:37:37.479Z,103499.09
2019-02-22T09:40:09.004Z,103494.48
2019-02-22T09:42:39.044Z,103499.95
2019-02-22T09:45:10.555Z,103500.38
2019-02-22T09:47:39.094Z,103503.68
2019-02-22T09:50:10.525Z,103494.11
2019-02-22T09:52:39.000Z,103506.62
2019-02-22T09:55:09.991Z,103517.72
2019-02-22T09:57:38.837Z,103523.97
2019-02-22T10:00:10.694Z,103528.84
2019-02-22T10:02:39.211Z,103533.69
2019-02-22T10:05:09.815Z,103537.98
2019-02-22T10:07:38.292Z,103538.33
2019-02-22T10:10:09.530Z,103539.80
2019-02-22T10:12:37.981Z,103545.83
2019-02-22T10:15:08.388Z,103551.73
2019-02-22T10:17:36.857Z,103551.80
2019-02-22T10:20:08.225Z,103550.84
2019-02-22T10:22:36.715Z,103547.06
2019-02-22T10:25:06.673Z,103548.80
2019-02-22T10:27:38.308Z,103554.88
2019-02-22T10:30:10.118Z,103550.69
2019-02-22T10:32:38.596Z,103549.13
2019-02-22T10:35:08.126Z,103547.25
2019-02-22T10:37:36.581Z,103544.80
2019-02-22T10:40:08.088Z,103555.03
2019-02-22T10:42:36.543Z,103562.05
2019-02-22T10:45:07.928Z,103554.95
2019-02-22T10:47:36.368Z,103553.45
2019-02-22T10:50:05.827Z,103548.11
2019-02-22T10:52:34.272Z,103557.30
2019-02-22T10:55:02.957Z,103561.19
2019-02-22T10:57:31.393Z,103553.53
2019-02-22T10:59:59.883Z,103560.17
2019-02-22T11:02:28.355Z,103563.52
2019-02-22T11:04:56.847Z,103568.40
2019-02-22T11:07:25.347Z,103562.17
2019-02-22T11:09:53.816Z,103571.58
2019-02-22T11:12:24.361Z,103557.33
2019-02-22T11:14:52.521Z,103567.39
2019-02-22T11:17:21.069Z,103578.00
2019-02-22T11:19:49.526Z,103573.39
2019-02-22T11:22:18.031Z,103567.28
2019-02-22T11:24:49.280Z,103571.86
2019-02-22T11:27:17.741Z,103571.17
2019-02-22T11:29:48.800Z,103572.01
2019-02-22T11:32:17.960Z,103578.02
2019-02-22T11:34:48.472Z,103587.45
2019-02-22T11:37:16.938Z,103580.09
2019-02-22T11:39:48.527Z,103576.89
2019-02-22T11:42:17.009Z,103578.59
2019-02-22T11:44:45.477Z,103570.27
2019-02-22T11:47:13.955Z,103578.75
2019-02-22T11:49:42.505Z,103580.94
2019-02-22T11:52:10.971Z,103592.63
2019-02-22T11:54:39.428Z,103590.91
2019-02-22T11:57:08.143Z,103598.41
2019-02-22T11:59:36.607Z,103592.30
2019-02-22T12:02:05.298Z,103590.47
2019-02-22T12:04:33.822Z,103600.53
2019-02-22T12:07:02.465Z,103603.06
2019-02-22T12:09:38.418Z,103588.55
2019-02-22T12:12:07.014Z,103599.83
2019-02-22T12:14:36.006Z,103598.25
2019-02-22T12:17:04.560Z,103594.80
2019-02-22T12:19:33.015Z,103595.13
2019-02-22T12:22:01.484Z,103596.20
2019-02-22T12:24:30.025Z,103599.23
2019-02-22T12:26:58.486Z,103604.89
2019-02-22T12:29:26.969Z,103616.80
2019-02-22T12:31:55.455Z,103624.25
2019-02-22T12:34:25.420Z,103618.58
2019-02-22T12:36:53.906Z,103634.98
2019-02-22T12:39:24.558Z,103642.33
2019-02-22T12:41:53.745Z,103641.26
2019-02-22T12:44:22.263Z,103642.27
2019-02-22T12:46:50.729Z,103640.72
2019-02-22T12:49:19.170Z,103633.19
2019-02-22T12:51:47.750Z,103631.80
2019-02-22T12:54:16.215Z,103633.87
2019-02-22T12:56:57.080Z,103642.52
2019-02-22T12:59:14.971Z,103642.00
2019-02-22T13:01:43.552Z,103630.80
2019-02-22T13:04:12.100Z,103629.79
2019-02-22T13:06:40.595Z,103631.86
2019-02-22T13:09:09.491Z,103641.25
2019-02-22T13:11:37.957Z,103648.62
2019-02-22T13:14:06.498Z,103657.28
2019-02-22T13:16:35.020Z,103657.75
2019-02-22T13:19:03.480Z,103660.80
2019-02-22T13:21:31.941Z,103663.31
2019-02-22T13:24:00.390Z,103673.95
2019-02-22T13:26:28.864Z,103674.98
2019-02-22T13:28:57.354Z,103681.01
2019-02-22T13:31:30.232Z,103675.17
2019-02-22T13:33:56.079Z,103676.46
2019-02-22T13:36:24.621Z,103677.50
2019-02-22T13:38:53.130Z,103664.36
2019-02-22T13:41:21.592Z,103666.55
2019-02-22T13:43:50.121Z,103670.55
2019-02-22T13:46:18.599Z,103664.42
2019-02-22T13:48:47.136Z,103660.47
2019-02-22T13:51:15.593Z,103650.47
2019-02-22T13:53:45.681Z,103653.86
2019-02-22T13:56:14.165Z,103660.73
2019-02-22T13:58:42.607Z,103670.05
2019-02-22T14:01:11.095Z,103664.87
2019-02-22T14:03:39.551Z,103655.16
2019-02-22T14:06:08.051Z,103669.41
2019-02-22T14:08:36.532Z,103671.76
2019-02-22T14:11:05.012Z,103679.18
2019-02-22T14:13:33.539Z,103668.02
2019-02-22T14:16:02.004Z,103662.46
2019-02-22T14:18:30.480Z,103661.51
2019-02-22T14:20:58.942Z,103669.66
2019-02-22T14:23:27.421Z,103671.77
2019-02-22T14:25:55.925Z,103681.29
2019-02-22T14:28:24.405Z,103671.99
2019-02-22T14:30:52.855Z,103671.93
2019-02-22T14:33:21.329Z,103666.09
2019-02-22T14:35:49.780Z,103668.86
2019-02-22T14:38:18.272Z,103668.02
2019-02-22T14:40:46.728Z,103682.30
2019-02-22T14:43:16.897Z,103688.98
2019-02-22T14:45:49.266Z,103685.13
2019-02-22T14:48:15.648Z,103686.17
2019-02-22T14:50:44.208Z,103629.11
2019-02-22T14:53:19.648Z,103698.77
2019-02-22T14:55:43.052Z,103695.77
2019-02-22T14:58:11.536Z,103697.07
2019-02-22T15:00:40.004Z,103702.79
2019-02-22T15:03:08.474Z,103700.48
2019-02-22T15:05:36.939Z,103707.24
2019-02-22T15:08:05.494Z,103708.29
2019-02-22T15:10:34.012Z,103712.78
2019-02-22T15:13:02.502Z,103709.83
2019-02-22T15:18:26.334Z,103697.16
2019-02-22T15:20:55.164Z,103705.88
2019-02-22T15:23:23.658Z,103718.10
2019-02-22T15:25:52.161Z,103715.41
2019-02-22T15:28:20.632Z,103716.16
2019-02-22T15:30:49.088Z,103716.51
2019-02-22T15:33:18.401Z,103717.98
2019-02-22T15:35:47.061Z,103716.56
2019-02-22T15:38:15.564Z,103716.67
2019-02-22T15:40:44.111Z,103721.23
2019-02-22T15:43:12.602Z,103724.22
2019-02-22T15:45:41.099Z,103728.22
2019-02-22T15:48:09.609Z,103725.61
2019-02-22T15:50:39.853Z,103727.42
2019-02-22T15:53:08.330Z,103725.13
2019-02-22T15:55:36.796Z,103719.75
2019-02-22T15:58:05.283Z,103722.05
2019-02-22T16:00:34.915Z,103718.48
2019-02-22T16:03:05.072Z,103721.31
2019-02-22T16:05:35.258Z,103727.72
2019-02-22T16:08:03.806Z,103726.45
2019-02-22T16:10:32.358Z,103732.23
2019-02-22T16:13:00.840Z,103735.09
2019-02-22T16:15:29.313Z,103741.50
2019-02-22T16:18:02.513Z,103740.57
2019-02-22T16:20:30.993Z,103744.37
2019-02-22T16:23:04.486Z,103742.05
2019-02-22T16:25:32.987Z,103743.77
2019-02-22T16:28:01.557Z,103748.73
2019-02-22T16:30:30.898Z,103760.39
2019-02-22T16:32:59.362Z,103767.06
2019-02-22T16:35:27.934Z,103767.86
2019-02-22T16:37:56.426Z,103766.75
2019-02-22T16:40:25.001Z,103763.62
2019-02-22T16:42:54.999Z,103779.41
2019-02-22T16:45:23.655Z,103782.98
2019-02-22T16:47:52.141Z,103786.19
2019-02-22T16:50:20.827Z,103784.77
2019-02-22T16:52:49.297Z,103779.05
2019-02-22T16:55:18.000Z,103780.62
2019-02-22T16:57:47.977Z,103776.45
2019-02-22T17:00:17.417Z,103782.93
2019-02-22T17:02:45.875Z,103785.91
2019-02-22T17:05:16.997Z,103783.73
2019-02-22T17:07:45.540Z,103790.12
2019-02-22T17:10:16.150Z,103788.30
2019-02-22T17:12:46.205Z,103782.97
2019-02-22T17:15:15.308Z,103780.75
2019-02-22T17:17:43.837Z,103779.05
2019-02-22T17:20:14.210Z,103776.41
2019-02-22T17:22:42.698Z,103779.70
2019-02-22T17:25:14.028Z,103791.09
2019-02-22T17:27:42.500Z,103794.53
2019-02-22T17:30:20.001Z,103795.49
2019-02-22T17:32:48.529Z,103804.30
2019-02-22T17:35:17.246Z,103805.13
2019-02-22T17:37:50.695Z,103811.97
2019-02-22T17:40:30.080Z,103811.91
2019-02-22T17:42:58.551Z,103812.33
2019-02-22T17:45:27.015Z,103821.92
2019-02-22T17:48:22.821Z,103823.22
2019-02-22T17:50:51.302Z,103818.69
2019-02-22T17:53:21.589Z,103822.28
2019-02-22T17:55:50.686Z,103826.13
2019-02-22T17:58:24.466Z,103834.17
2019-02-22T18:00:49.449Z,103835.47
2019-02-22T18:03:24.413Z,103832.73
2019-02-22T18:05:52.912Z,103839.58
2019-02-22T18:08:21.382Z,103840.53
2019-02-22T18:10:49.938Z,103840.56
2019-02-22T18:13:18.401Z,103842.88
2019-02-22T18:15:58.022Z,103846.57
2019-02-22T18:18:25.735Z,103854.30
2019-02-22T18:20:54.287Z,103864.58
2019-02-22T18:23:22.800Z,103859.64
2019-02-22T18:25:51.349Z,103863.31
2019-02-22T18:28:22.519Z,103859.84
2019-02-22T18:30:51.033Z,103863.53
2019-02-22T18:33:21.082Z,103858.70
2019-02-22T18:35:51.035Z,103856.44
2019-02-22T18:38:19.554Z,103852.89
2019-02-22T18:40:48.648Z,103860.56
2019-02-22T18:43:18.463Z,103815.44
2019-02-22T18:45:47.152Z,103866.55
2019-02-22T18:51:47.702Z,103873.83
2019-02-22T18:54:16.199Z,103886.57
2019-02-22T18:56:44.665Z,103877.20
2019-02-22T18:59:14.926Z,103867.91
2019-02-22T19:01:45.885Z,103868.33
2019-02-22T19:04:14.480Z,103732.00
2019-02-22T19:06:42.953Z,103859.84
2019-02-22T19:09:11.494Z,103849.50
2019-02-22T19:11:39.957Z,103836.49
2019-02-22T19:14:08.439Z,103837.86
2019-02-22T19:16:36.921Z,103846.53
2019-02-22T19:19:05.400Z,103849.59
2019-02-22T19:21:33.885Z,103847.79
2019-02-22T19:24:02.581Z,103848.59
2019-02-22T19:26:31.127Z,103853.95
2019-02-22T19:28:59.582Z,103848.78
2019-02-22T19:31:28.073Z,103841.11
2019-02-22T19:33:56.602Z,103842.14
2019-02-22T19:36:25.101Z,103848.77
2019-02-22T19:38:53.588Z,103859.00
2019-02-22T19:41:22.054Z,103854.91
2019-02-22T19:43:50.559Z,103855.36
2019-02-22T19:46:19.054Z,103854.61
2019-02-22T19:48:47.507Z,103857.70
2019-02-22T19:51:18.834Z,103856.03
2019-02-22T19:53:47.326Z,103855.11
2019-02-22T19:56:15.811Z,103858.81
2019-02-22T19:58:45.819Z,103857.80
2019-02-22T20:01:14.376Z,103860.54
2019-02-22T20:03:43.478Z,103878.78
2019-02-22T20:06:12.184Z,103894.47
2019-02-22T20:08:40.906Z,103896.26
2019-02-22T20:11:09.719Z,103891.77
2019-02-22T20:13:38.358Z,103889.47
2019-02-22T20:16:06.944Z,103895.74
2019-02-22T20:18:35.593Z,103893.41
2019-02-22T20:21:07.455Z,103893.81
2019-02-22T20:23:36.191Z,103893.89
2019-02-22T20:26:04.894Z,103890.81
2019-02-22T20:28:35.201Z,103890.52
2019-02-22T20:31:04.181Z,103887.87
2019-02-22T20:33:32.671Z,103895.48
2019-02-22T20:36:02.674Z,103887.05
2019-02-22T20:38:31.708Z,103895.59
2019-02-22T20:41:00.396Z,103901.88
2019-02-22T20:43:29.236Z,103895.11
2019-02-22T20:45:57.995Z,103893.78
2019-02-22T20:48:27.004Z,103893.86
2019-02-22T20:50:55.630Z,103898.89
2019-02-22T20:53:24.324Z,103900.22
2019-02-22T20:55:52.995Z,103901.17
2019-02-22T20:58:21.475Z,103902.55
2019-02-22T21:00:53.745Z,103894.90
2019-02-22T21:03:22.225Z,103890.48
2019-02-22T21:05:50.764Z,103890.14
2019-02-22T21:08:19.245Z,103897.25
2019-02-22T21:10:49.014Z,103899.93
2019-02-22T21:13:17.489Z,103906.21
2019-02-22T21:15:46.114Z,103903.47
2019-02-22T21:18:17.323Z,103896.83
2019-02-22T21:20:45.800Z,103899.11
2019-02-22T21:23:14.309Z,103916.13
2019-02-22T21:25:42.873Z,103918.34
2019-02-22T21:28:11.355Z,103915.69
2019-02-22T21:30:39.832Z,103913.92
2019-02-22T21:33:08.304Z,103909.45
2019-02-22T21:35:36.931Z,103905.03
2019-02-22T21:38:07.451Z,103908.17
2019-02-22T21:40:35.750Z,103918.89
2019-02-22T21:43:05.769Z,103928.78
2019-02-22T21:45:42.599Z,103943.46
2019-02-22T21:48:11.125Z,103946.55
2019-02-22T21:50:39.614Z,103957.27
2019-02-22T21:53:08.096Z,103953.77
2019-02-22T21:55:36.584Z,103956.45
2019-02-22T21:58:07.674Z,103959.13
2019-02-22T22:00:36.237Z,103963.08
2019-02-22T22:03:04.780Z,103959.95
2019-02-22T22:05:37.487Z,103966.19
2019-02-22T22:08:07.857Z,103967.98
2019-02-22T22:10:36.377Z,103970.21
2019-02-22T22:13:04.876Z,103973.34
2019-02-22T22:15:36.540Z,103977.78
2019-02-22T22:18:06.146Z,103992.98
2019-02-22T22:20:34.610Z,103993.39
2019-02-22T22:23:03.139Z,103998.75
2019-02-22T22:25:31.613Z,104005.91
2019-02-22T22:28:00.199Z,104009.46
2019-02-22T22:30:28.660Z,104011.73
2019-02-22T22:32:58.148Z,104011.32
2019-02-22T22:35:26.614Z,104013.03
2019-02-22T22:37:55.120Z,104013.55
2019-02-22T22:40:23.863Z,104025.60
2019-02-22T22:42:52.327Z,104024.67
2019-02-22T22:45:20.894Z,104022.03
2019-02-22T22:47:49.371Z,104015.75
2019-02-22T22:50:18.340Z,104011.27
2019-02-22T22:52:46.816Z,104017.15
2019-02-22T22:55:18.729Z,104027.91
2019-02-22T22:57:47.483Z,104031.97
2019-02-22T23:03:21.696Z,104014.47
2019-02-22T23:05:50.226Z,104013.63
2019-02-22T23:08:18.719Z,104028.45
2019-02-22T23:10:47.307Z,104032.01
2019-02-22T23:13:15.768Z,104023.52
2019-02-22T23:15:44.245Z,104026.61
2019-02-22T23:18:12.784Z,104012.30
2019-02-22T23:20:41.401Z,104010.13
2019-02-22T23:23:10.032Z,103999.00
2019-02-22T23:25:38.584Z,103994.60
2019-02-22T23:28:11.584Z,103988.86
2019-02-22T23:30:40.073Z,103984.00
2019-02-22T23:33:08.626Z,103985.80
2019-02-22T23:35:37.188Z,103994.25
2019-02-22T23:38:05.658Z,103998.72
2019-02-22T23:40:34.144Z,104001.82
2019-02-22T23:43:02.626Z,104000.48
2019-02-22T23:45:31.188Z,103997.80
2019-02-22T23:47:59.649Z,103984.91
2019-02-22T23:50:28.175Z,103975.12
2019-02-22T23:52:56.645Z,103975.61
2019-02-22T23:55:25.124Z,103972.07
2019-02-22T23:57:53.619Z,103978.76
